SWA2504 KRDU-KPHL
Flight info
| Callsign | SWA2504 |
|---|---|
| Flight time | 0h 37m |
| Altitude | 31000 |
| Route | OXFRD5 CARML BBDOL PAATS4 |
| Aircraft | B738/M-SDE2E3FGHIRWXY/LB1 |
Departure
| Time | 2026-05-06 12:25 |
|---|---|
| Airport | Raleigh-Durham International Airport (KRDU) |
Arrival
| Time | 2026-05-06 13:03 |
|---|---|
| Airport | Philadelphia International Airport (KPHL) |
| Time | Latitude | Longitude | Altitude | Speed | Heading |
|---|---|---|---|---|---|
| 2026-05-06 11:58 | 35.87844 | -78.79163 | 391 ft | 0 kts | 340° |
| 2026-05-06 12:12 | 35.87837 | -78.79161 | 391 ft | 4 kts | 340° |
| 2026-05-06 12:13 | 35.87811 | -78.79150 | 392 ft | 4 kts | 359° |
| 2026-05-06 12:13 | 35.87786 | -78.79159 | 392 ft | 0 kts | 55° |
| 2026-05-06 12:16 | 35.87786 | -78.79158 | 392 ft | 1 kts | 55° |
| 2026-05-06 12:17 | 35.87811 | -78.79124 | 392 ft | 9 kts | 46° |
| 2026-05-06 12:17 | 35.87861 | -78.79066 | 393 ft | 10 kts | 43° |
| 2026-05-06 12:17 | 35.87911 | -78.79007 | 394 ft | 10 kts | 45° |
| 2026-05-06 12:17 | 35.87966 | -78.78963 | 399 ft | 10 kts | 20° |
| 2026-05-06 12:18 | 35.88039 | -78.79004 | 389 ft | 15 kts | 322° |
| 2026-05-06 12:18 | 35.88119 | -78.79057 | 391 ft | 11 kts | 12° |
| 2026-05-06 12:18 | 35.88176 | -78.78996 | 390 ft | 11 kts | 45° |
| 2026-05-06 12:18 | 35.88229 | -78.78929 | 392 ft | 11 kts | 45° |
| 2026-05-06 12:19 | 35.88281 | -78.78865 | 393 ft | 10 kts | 44° |
| 2026-05-06 12:19 | 35.88331 | -78.78804 | 393 ft | 10 kts | 44° |
| 2026-05-06 12:19 | 35.88381 | -78.78744 | 395 ft | 10 kts | 44° |
| 2026-05-06 12:19 | 35.88428 | -78.78687 | 395 ft | 10 kts | 44° |
| 2026-05-06 12:20 | 35.88475 | -78.78631 | 400 ft | 9 kts | 44° |
| 2026-05-06 12:20 | 35.88522 | -78.78575 | 401 ft | 10 kts | 45° |
| 2026-05-06 12:20 | 35.88572 | -78.78509 | 400 ft | 11 kts | 47° |
| 2026-05-06 12:20 | 35.88627 | -78.78435 | 404 ft | 12 kts | 47° |
| 2026-05-06 12:21 | 35.88683 | -78.78364 | 406 ft | 11 kts | 45° |
| 2026-05-06 12:21 | 35.88737 | -78.78295 | 405 ft | 11 kts | 51° |
| 2026-05-06 12:21 | 35.88794 | -78.78226 | 404 ft | 11 kts | 38° |
| 2026-05-06 12:21 | 35.88852 | -78.78164 | 405 ft | 11 kts | 43° |
| 2026-05-06 12:22 | 35.88899 | -78.78169 | 407 ft | 7 kts | 300° |
| 2026-05-06 12:22 | 35.88884 | -78.78227 | 407 ft | 9 kts | 226° |
| 2026-05-06 12:22 | 35.88823 | -78.78303 | 406 ft | 15 kts | 222° |
| 2026-05-06 12:22 | 35.88751 | -78.78390 | 407 ft | 14 kts | 235° |
| 2026-05-06 12:23 | 35.88765 | -78.78476 | 407 ft | 10 kts | 302° |
| 2026-05-06 12:23 | 35.88788 | -78.78535 | 408 ft | 5 kts | 266° |
| 2026-05-06 12:23 | 35.88775 | -78.78558 | 406 ft | 0 kts | 224° |
| 2026-05-06 12:25 | 35.88766 | -78.78569 | 407 ft | 18 kts | 225° |
| 2026-05-06 12:25 | 35.88464 | -78.78940 | 393 ft | 102 kts | 225° |
| 2026-05-06 12:25 | 35.87793 | -78.79748 | 523 ft | 155 kts | 221° |
| 2026-05-06 12:25 | 35.86959 | -78.80632 | 1317 ft | 163 kts | 219° |
| 2026-05-06 12:26 | 35.86392 | -78.81771 | 2539 ft | 154 kts | 254° |
| 2026-05-06 12:26 | 35.86554 | -78.83034 | 3797 ft | 155 kts | 289° |
| 2026-05-06 12:26 | 35.87400 | -78.84043 | 4426 ft | 198 kts | 327° |
| 2026-05-06 12:26 | 35.88917 | -78.84319 | 4743 ft | 240 kts | 353° |
| 2026-05-06 12:27 | 35.90658 | -78.83842 | 5095 ft | 273 kts | 20° |
| 2026-05-06 12:27 | 35.92453 | -78.82797 | 5488 ft | 294 kts | 21° |
| 2026-05-06 12:27 | 35.94344 | -78.81774 | 6357 ft | 297 kts | 17° |
| 2026-05-06 12:27 | 35.96235 | -78.80872 | 7408 ft | 295 kts | 15° |
| 2026-05-06 12:28 | 35.98171 | -78.79976 | 8341 ft | 300 kts | 16° |
| 2026-05-06 12:28 | 36.00142 | -78.79062 | 9260 ft | 305 kts | 16° |
| 2026-05-06 12:28 | 36.02139 | -78.78127 | 10166 ft | 309 kts | 16° |
| 2026-05-06 12:28 | 36.04176 | -78.77166 | 10832 ft | 323 kts | 16° |
| 2026-05-06 12:29 | 36.06365 | -78.76133 | 11042 ft | 350 kts | 17° |
| 2026-05-06 12:29 | 36.11812 | -78.73528 | 12502 ft | 374 kts | 17° |
| 2026-05-06 12:29 | 36.21729 | -78.68737 | 15559 ft | 390 kts | 16° |
| 2026-05-06 12:29 | 36.31990 | -78.63770 | 18494 ft | 402 kts | 15° |
| 2026-05-06 12:30 | 36.41212 | -78.59300 | 20583 ft | 414 kts | 15° |
| 2026-05-06 12:30 | 36.43870 | -78.57844 | 21153 ft | 421 kts | 20° |
| 2026-05-06 12:30 | 36.49409 | -78.54265 | 22361 ft | 429 kts | 22° |
| 2026-05-06 12:30 | 36.60075 | -78.47171 | 24402 ft | 440 kts | 22° |
| 2026-05-06 12:31 | 36.70985 | -78.40020 | 26234 ft | 447 kts | 20° |
| 2026-05-06 12:31 | 36.81989 | -78.32806 | 28491 ft | 443 kts | 19° |
| 2026-05-06 12:31 | 36.87537 | -78.29186 | 29851 ft | 433 kts | 17° |
| 2026-05-06 12:31 | 36.90234 | -78.27582 | 30439 ft | 428 kts | 15° |
| 2026-05-06 12:32 | 36.92923 | -78.25941 | 30858 ft | 435 kts | 20° |
| 2026-05-06 12:32 | 36.95420 | -78.23798 | 30953 ft | 449 kts | 30° |
| 2026-05-06 12:32 | 37.00284 | -78.18626 | 30996 ft | 470 kts | 32° |
| 2026-05-06 12:33 | 37.05216 | -78.13263 | 31002 ft | 489 kts | 32° |
| 2026-05-06 12:33 | 37.10156 | -78.07929 | 31012 ft | 499 kts | 32° |
| 2026-05-06 12:33 | 37.15348 | -78.02338 | 30973 ft | 486 kts | 32° |
| 2026-05-06 12:34 | 37.33061 | -77.83360 | 30978 ft | 484 kts | 32° |
| 2026-05-06 12:34 | 37.53338 | -77.61474 | 30985 ft | 484 kts | 32° |
| 2026-05-06 12:35 | 37.73819 | -77.39201 | 30988 ft | 487 kts | 32° |
| 2026-05-06 12:35 | 37.94373 | -77.16680 | 30973 ft | 491 kts | 32° |
| 2026-05-06 12:36 | 38.14988 | -76.93923 | 30986 ft | 501 kts | 33° |
| 2026-05-06 12:36 | 38.36103 | -76.70405 | 30935 ft | 502 kts | 33° |
| 2026-05-06 12:37 | 38.56785 | -76.47193 | 30946 ft | 489 kts | 33° |
| 2026-05-06 12:37 | 38.70275 | -76.31976 | 30964 ft | 496 kts | 33° |
| 2026-05-06 12:38 | 38.75461 | -76.26097 | 30881 ft | 499 kts | 33° |
| 2026-05-06 12:38 | 38.78019 | -76.23189 | 30427 ft | 497 kts | 33° |
| 2026-05-06 12:38 | 38.80595 | -76.20255 | 29776 ft | 494 kts | 34° |
| 2026-05-06 12:39 | 38.83099 | -76.17245 | 29067 ft | 493 kts | 38° |
| 2026-05-06 12:39 | 38.85487 | -76.14108 | 28389 ft | 490 kts | 40° |
| 2026-05-06 12:39 | 38.87810 | -76.10928 | 27708 ft | 488 kts | 41° |
| 2026-05-06 12:39 | 38.90111 | -76.07741 | 27044 ft | 486 kts | 41° |
| 2026-05-06 12:40 | 38.92391 | -76.04592 | 26783 ft | 474 kts | 41° |
| 2026-05-06 12:40 | 38.94608 | -76.01547 | 26642 ft | 460 kts | 41° |
| 2026-05-06 12:40 | 38.96756 | -75.98621 | 26230 ft | 454 kts | 41° |
| 2026-05-06 12:40 | 38.98930 | -75.95682 | 25644 ft | 454 kts | 41° |
| 2026-05-06 12:41 | 39.01107 | -75.92751 | 25087 ft | 453 kts | 41° |
| 2026-05-06 12:41 | 39.03276 | -75.89828 | 24594 ft | 450 kts | 41° |
| 2026-05-06 12:41 | 39.05430 | -75.86920 | 24134 ft | 447 kts | 42° |
| 2026-05-06 12:41 | 39.07565 | -75.84033 | 23687 ft | 444 kts | 42° |
| 2026-05-06 12:42 | 39.09688 | -75.81159 | 23207 ft | 441 kts | 42° |
| 2026-05-06 12:42 | 39.11793 | -75.78304 | 22704 ft | 438 kts | 43° |
| 2026-05-06 12:42 | 39.13852 | -75.75507 | 22234 ft | 434 kts | 43° |
| 2026-05-06 12:42 | 39.15917 | -75.72701 | 21773 ft | 430 kts | 43° |
| 2026-05-06 12:43 | 39.17969 | -75.69910 | 21287 ft | 428 kts | 43° |
| 2026-05-06 12:43 | 39.20011 | -75.67131 | 20801 ft | 425 kts | 43° |
| 2026-05-06 12:43 | 39.22037 | -75.64372 | 20336 ft | 422 kts | 44° |
| 2026-05-06 12:43 | 39.24049 | -75.61628 | 19881 ft | 420 kts | 44° |
| 2026-05-06 12:44 | 39.26049 | -75.58898 | 19429 ft | 417 kts | 44° |
| 2026-05-06 12:44 | 39.28037 | -75.56183 | 18989 ft | 415 kts | 44° |
| 2026-05-06 12:44 | 39.30015 | -75.53478 | 18534 ft | 413 kts | 45° |
| 2026-05-06 12:44 | 39.31985 | -75.50782 | 18094 ft | 411 kts | 45° |
| 2026-05-06 12:45 | 39.33917 | -75.48136 | 17626 ft | 409 kts | 45° |
| 2026-05-06 12:45 | 39.35862 | -75.45468 | 17167 ft | 406 kts | 45° |
| 2026-05-06 12:45 | 39.39706 | -75.40191 | 16320 ft | 400 kts | 45° |
| 2026-05-06 12:46 | 39.41607 | -75.37577 | 15899 ft | 398 kts | 45° |
| 2026-05-06 12:46 | 39.43498 | -75.34977 | 15479 ft | 395 kts | 46° |
| 2026-05-06 12:46 | 39.45373 | -75.32396 | 15063 ft | 393 kts | 45° |
| 2026-05-06 12:46 | 39.47383 | -75.30022 | 14628 ft | 389 kts | 34° |
| 2026-05-06 12:47 | 39.49583 | -75.28092 | 14235 ft | 386 kts | 31° |
| 2026-05-06 12:47 | 39.51821 | -75.26228 | 13836 ft | 377 kts | 30° |
| 2026-05-06 12:47 | 39.53972 | -75.24443 | 13716 ft | 357 kts | 31° |
| 2026-05-06 12:47 | 39.56018 | -75.22730 | 13448 ft | 345 kts | 31° |
| 2026-05-06 12:48 | 39.58012 | -75.21047 | 12931 ft | 341 kts | 31° |
| 2026-05-06 12:48 | 39.59992 | -75.19366 | 12368 ft | 340 kts | 31° |
| 2026-05-06 12:48 | 39.61960 | -75.17688 | 11824 ft | 337 kts | 32° |
| 2026-05-06 12:48 | 39.63248 | -75.16586 | 11648 ft | 330 kts | 32° |
| 2026-05-06 12:49 | 39.65132 | -75.14970 | 11322 ft | 322 kts | 32° |
| 2026-05-06 12:49 | 39.67593 | -75.12861 | 10703 ft | 319 kts | 32° |
| 2026-05-06 12:49 | 39.69439 | -75.11278 | 10265 ft | 317 kts | 32° |
| 2026-05-06 12:49 | 39.71253 | -75.09719 | 10105 ft | 310 kts | 32° |
| 2026-05-06 12:50 | 39.73050 | -75.08134 | 9874 ft | 315 kts | 38° |
| 2026-05-06 12:50 | 39.74630 | -75.06174 | 9552 ft | 314 kts | 48° |
| 2026-05-06 12:50 | 39.76070 | -75.04049 | 9260 ft | 313 kts | 50° |
| 2026-05-06 12:50 | 39.77010 | -75.02631 | 9056 ft | 312 kts | 50° |
| 2026-05-06 12:51 | 39.78442 | -75.00510 | 8757 ft | 311 kts | 49° |
| 2026-05-06 12:51 | 39.80353 | -74.97750 | 8393 ft | 309 kts | 48° |
| 2026-05-06 12:51 | 39.81800 | -74.95684 | 8111 ft | 308 kts | 48° |
| 2026-05-06 12:51 | 39.83198 | -74.93580 | 7837 ft | 306 kts | 58° |
| 2026-05-06 12:52 | 39.84012 | -74.91069 | 7551 ft | 300 kts | 78° |
| 2026-05-06 12:52 | 39.84543 | -74.88459 | 7281 ft | 298 kts | 79° |
| 2026-05-06 12:52 | 39.84887 | -74.86730 | 7081 ft | 297 kts | 77° |
| 2026-05-06 12:52 | 39.85832 | -74.84412 | 7015 ft | 287 kts | 47° |
| 2026-05-06 12:53 | 39.87990 | -74.82773 | 6859 ft | 260 kts | 7° |
| 2026-05-06 12:53 | 39.89161 | -74.82626 | 6770 ft | 242 kts | 351° |
| 2026-05-06 12:53 | 39.91161 | -74.83298 | 6502 ft | 214 kts | 322° |
| 2026-05-06 12:53 | 39.91979 | -74.84003 | 6255 ft | 205 kts | 309° |
| 2026-05-06 12:54 | 39.92877 | -74.85321 | 5957 ft | 187 kts | 291° |
| 2026-05-06 12:54 | 39.93417 | -74.86740 | 5827 ft | 166 kts | 280° |
| 2026-05-06 12:54 | 39.93735 | -74.88141 | 5512 ft | 158 kts | 270° |
| 2026-05-06 12:54 | 39.93712 | -74.89506 | 5161 ft | 148 kts | 253° |
| 2026-05-06 12:55 | 39.93591 | -74.90841 | 4887 ft | 145 kts | 255° |
| 2026-05-06 12:55 | 39.93449 | -74.92108 | 4662 ft | 136 kts | 251° |
| 2026-05-06 12:55 | 39.93273 | -74.93276 | 4459 ft | 126 kts | 249° |
| 2026-05-06 12:55 | 39.93078 | -74.94378 | 4295 ft | 125 kts | 249° |
| 2026-05-06 12:56 | 39.92873 | -74.95478 | 4127 ft | 127 kts | 248° |
| 2026-05-06 12:56 | 39.92656 | -74.96596 | 3963 ft | 128 kts | 248° |
| 2026-05-06 12:56 | 39.92439 | -74.97705 | 3786 ft | 124 kts | 248° |
| 2026-05-06 12:56 | 39.92226 | -74.98775 | 3627 ft | 121 kts | 247° |
| 2026-05-06 12:57 | 39.92011 | -74.99844 | 3475 ft | 122 kts | 248° |
| 2026-05-06 12:57 | 39.91794 | -75.00921 | 3317 ft | 123 kts | 248° |
| 2026-05-06 12:57 | 39.91582 | -75.01990 | 3153 ft | 120 kts | 247° |
| 2026-05-06 12:57 | 39.91372 | -75.03030 | 2999 ft | 118 kts | 248° |
| 2026-05-06 12:58 | 39.91169 | -75.04044 | 2840 ft | 116 kts | 248° |
| 2026-05-06 12:58 | 39.90963 | -75.05063 | 2750 ft | 118 kts | 247° |
| 2026-05-06 12:58 | 39.90744 | -75.06121 | 2484 ft | 119 kts | 247° |
| 2026-05-06 12:58 | 39.90546 | -75.07129 | 2427 ft | 111 kts | 248° |
| 2026-05-06 12:59 | 39.90366 | -75.08076 | 2672 ft | 112 kts | 245° |
| 2026-05-06 12:59 | 39.90146 | -75.08989 | 3045 ft | 104 kts | 246° |
| 2026-05-06 12:59 | 39.89994 | -75.09934 | 2849 ft | 108 kts | 249° |
| 2026-05-06 12:59 | 39.89857 | -75.10888 | 2463 ft | 103 kts | 246° |
| 2026-05-06 13:00 | 39.89656 | -75.11748 | 2226 ft | 98 kts | 237° |
| 2026-05-06 13:00 | 39.89387 | -75.12569 | 2084 ft | 103 kts | 243° |
| 2026-05-06 13:00 | 39.89221 | -75.13531 | 1771 ft | 116 kts | 251° |
| 2026-05-06 13:00 | 39.89106 | -75.14619 | 1538 ft | 123 kts | 251° |
| 2026-05-06 13:01 | 39.88913 | -75.15742 | 1279 ft | 132 kts | 248° |
| 2026-05-06 13:01 | 39.88638 | -75.16865 | 875 ft | 132 kts | 244° |
| 2026-05-06 13:01 | 39.88382 | -75.17985 | 689 ft | 123 kts | 251° |
| 2026-05-06 13:01 | 39.88167 | -75.19117 | 597 ft | 137 kts | 249° |
| 2026-05-06 13:02 | 39.87910 | -75.20349 | 377 ft | 147 kts | 249° |
| 2026-05-06 13:02 | 39.87661 | -75.21586 | 233 ft | 134 kts | 250° |
| 2026-05-06 13:02 | 39.87442 | -75.22716 | 42 ft | 125 kts | 250° |
| 2026-05-06 13:02 | 39.87248 | -75.23660 | 19 ft | 82 kts | 255° |
| 2026-05-06 13:03 | 39.87164 | -75.24103 | 24 ft | 34 kts | 266° |
| 2026-05-06 13:03 | 39.87179 | -75.24387 | 26 ft | 28 kts | 285° |
| 2026-05-06 13:03 | 39.87214 | -75.24512 | 23 ft | 12 kts | 315° |
| 2026-05-06 13:03 | 39.87295 | -75.24547 | 22 ft | 12 kts | 346° |
| 2026-05-06 13:04 | 39.87377 | -75.24571 | 21 ft | 12 kts | 351° |
| 2026-05-06 13:04 | 39.87460 | -75.24553 | 20 ft | 13 kts | 18° |
| 2026-05-06 13:04 | 39.87515 | -75.24504 | 21 ft | 4 kts | 65° |
| 2026-05-06 13:04 | 39.87513 | -75.24479 | 20 ft | 6 kts | 99° |
| 2026-05-06 13:05 | 39.87507 | -75.24436 | 21 ft | 0 kts | 102° |